sensor_id;sensor_type;location;lat;lon;timestamp;P1;durP1;ratioP1;P2;durP2;ratioP2
52940;SDS011;62001;53.366;6.636;2022-12-24T00:02:17;64.50;;;21.73;;
52940;SDS011;62001;53.366;6.636;2022-12-24T00:04:44;74.33;;;23.50;;
52940;SDS011;62001;53.366;6.636;2022-12-24T00:07:10;58.57;;;21.17;;
52940;SDS011;62001;53.366;6.636;2022-12-24T00:09:36;55.30;;;20.67;;
52940;SDS011;62001;53.366;6.636;2022-12-24T00:12:02;72.87;;;22.30;;
52940;SDS011;62001;53.366;6.636;2022-12-24T00:14:28;63.67;;;21.73;;
52940;SDS011;62001;53.366;6.636;2022-12-24T00:16:54;62.50;;;21.97;;
52940;SDS011;62001;53.366;6.636;2022-12-24T00:19:20;76.53;;;22.63;;
52940;SDS011;62001;53.366;6.636;2022-12-24T00:21:46;62.07;;;22.00;;
52940;SDS011;62001;53.366;6.636;2022-12-24T00:24:11;67.77;;;22.87;;
52940;SDS011;62001;53.366;6.636;2022-12-24T00:26:37;78.60;;;23.80;;
52940;SDS011;62001;53.366;6.636;2022-12-24T00:29:03;68.00;;;22.43;;
52940;SDS011;62001;53.366;6.636;2022-12-24T00:31:29;64.97;;;22.77;;
52940;SDS011;62001;53.366;6.636;2022-12-24T00:33:55;66.67;;;21.90;;
52940;SDS011;62001;53.366;6.636;2022-12-24T00:36:21;72.20;;;22.63;;
52940;SDS011;62001;53.366;6.636;2022-12-24T00:38:47;65.43;;;22.33;;
52940;SDS011;62001;53.366;6.636;2022-12-24T00:41:13;72.10;;;23.23;;
52940;SDS011;62001;53.366;6.636;2022-12-24T00:43:52;65.60;;;21.87;;
52940;SDS011;62001;53.366;6.636;2022-12-24T00:46:20;70.60;;;22.23;;
52940;SDS011;62001;53.366;6.636;2022-12-24T00:48:47;67.67;;;21.50;;
52940;SDS011;62001;53.366;6.636;2022-12-24T00:51:13;67.23;;;23.60;;
52940;SDS011;62001;53.366;6.636;2022-12-24T00:53:39;60.20;;;21.97;;
52940;SDS011;62001;53.366;6.636;2022-12-24T00:56:05;79.07;;;22.30;;
52940;SDS011;62001;53.366;6.636;2022-12-24T00:58:32;70.63;;;24.10;;
52940;SDS011;62001;53.366;6.636;2022-12-24T01:00:58;60.90;;;23.20;;
52940;SDS011;62001;53.366;6.636;2022-12-24T01:03:24;70.57;;;22.17;;
52940;SDS011;62001;53.366;6.636;2022-12-24T01:06:09;71.23;;;23.17;;
52940;SDS011;62001;53.366;6.636;2022-12-24T01:08:40;66.27;;;22.50;;
52940;SDS011;62001;53.366;6.636;2022-12-24T01:11:06;75.80;;;23.77;;
52940;SDS011;62001;53.366;6.636;2022-12-24T01:13:34;73.30;;;23.63;;
52940;SDS011;62001;53.366;6.636;2022-12-24T01:16:00;69.17;;;23.60;;
52940;SDS011;62001;53.366;6.636;2022-12-24T01:18:27;75.27;;;24.10;;
52940;SDS011;62001;53.366;6.636;2022-12-24T01:20:57;67.77;;;24.50;;
52940;SDS011;62001;53.366;6.636;2022-12-24T01:23:24;75.07;;;25.00;;
52940;SDS011;62001;53.366;6.636;2022-12-24T01:25:50;72.67;;;23.57;;
52940;SDS011;62001;53.366;6.636;2022-12-24T01:28:17;84.80;;;24.63;;
52940;SDS011;62001;53.366;6.636;2022-12-24T01:30:43;77.50;;;24.07;;
52940;SDS011;62001;53.366;6.636;2022-12-24T01:33:09;84.57;;;24.23;;
52940;SDS011;62001;53.366;6.636;2022-12-24T01:35:38;86.30;;;25.30;;
52940;SDS011;62001;53.366;6.636;2022-12-24T01:38:04;75.38;;;24.92;;
52940;SDS011;62001;53.366;6.636;2022-12-24T01:40:30;85.83;;;25.50;;
52940;SDS011;62001;53.366;6.636;2022-12-24T01:43:19;77.40;;;24.40;;
52940;SDS011;62001;53.366;6.636;2022-12-24T01:53:44;111.17;;;26.87;;
52940;SDS011;62001;53.366;6.636;2022-12-24T01:56:12;97.63;;;25.47;;
52940;SDS011;62001;53.366;6.636;2022-12-24T01:58:39;102.97;;;26.50;;
52940;SDS011;62001;53.366;6.636;2022-12-24T02:01:10;89.33;;;25.90;;
52940;SDS011;62001;53.366;6.636;2022-12-24T02:03:36;83.03;;;24.27;;
52940;SDS011;62001;53.366;6.636;2022-12-24T02:06:02;91.73;;;25.40;;
52940;SDS011;62001;53.366;6.636;2022-12-24T02:08:29;103.57;;;26.00;;
52940;SDS011;62001;53.366;6.636;2022-12-24T02:13:41;95.93;;;25.40;;
52940;SDS011;62001;53.366;6.636;2022-12-24T02:21:39;89.47;;;25.13;;
52940;SDS011;62001;53.366;6.636;2022-12-24T02:37:35;95.83;;;26.80;;
52940;SDS011;62001;53.366;6.636;2022-12-24T02:40:08;90.87;;;25.43;;
52940;SDS011;62001;53.366;6.636;2022-12-24T02:42:50;116.13;;;28.70;;
52940;SDS011;62001;53.366;6.636;2022-12-24T02:45:21;90.43;;;25.00;;
52940;SDS011;62001;53.366;6.636;2022-12-24T02:47:53;97.67;;;25.23;;
52940;SDS011;62001;53.366;6.636;2022-12-24T02:50:20;122.27;;;28.03;;
52940;SDS011;62001;53.366;6.636;2022-12-24T02:52:46;97.40;;;23.80;;
52940;SDS011;62001;53.366;6.636;2022-12-24T03:00:57;114.60;;;26.90;;
52940;SDS011;62001;53.366;6.636;2022-12-24T03:03:37;103.17;;;25.97;;
52940;SDS011;62001;53.366;6.636;2022-12-24T03:09:00;119.28;;;26.00;;
52940;SDS011;62001;53.366;6.636;2022-12-24T03:11:34;115.27;;;26.47;;
52940;SDS011;62001;53.366;6.636;2022-12-24T03:14:05;109.97;;;25.57;;
52940;SDS011;62001;53.366;6.636;2022-12-24T03:16:31;99.70;;;25.10;;
52940;SDS011;62001;53.366;6.636;2022-12-24T03:18:58;133.47;;;27.97;;
52940;SDS011;62001;53.366;6.636;2022-12-24T03:21:27;106.17;;;26.97;;
52940;SDS011;62001;53.366;6.636;2022-12-24T03:23:57;98.33;;;25.30;;
52940;SDS011;62001;53.366;6.636;2022-12-24T03:26:23;82.93;;;23.63;;
52940;SDS011;62001;53.366;6.636;2022-12-24T03:28:51;93.93;;;23.83;;
52940;SDS011;62001;53.366;6.636;2022-12-24T03:31:17;87.40;;;24.87;;
52940;SDS011;62001;53.366;6.636;2022-12-24T03:33:44;70.20;;;23.20;;
52940;SDS011;62001;53.366;6.636;2022-12-24T03:36:10;92.70;;;24.23;;
52940;SDS011;62001;53.366;6.636;2022-12-24T03:38:36;84.27;;;24.03;;
52940;SDS011;62001;53.366;6.636;2022-12-24T03:41:02;83.00;;;24.97;;
52940;SDS011;62001;53.366;6.636;2022-12-24T03:43:28;70.07;;;24.33;;
52940;SDS011;62001;53.366;6.636;2022-12-24T03:45:54;68.20;;;23.27;;
52940;SDS011;62001;53.366;6.636;2022-12-24T03:48:20;68.03;;;24.03;;
52940;SDS011;62001;53.366;6.636;2022-12-24T03:50:46;81.03;;;23.53;;
52940;SDS011;62001;53.366;6.636;2022-12-24T03:53:11;143.77;;;29.20;;
52940;SDS011;62001;53.366;6.636;2022-12-24T03:55:37;69.10;;;23.87;;
52940;SDS011;62001;53.366;6.636;2022-12-24T03:58:04;64.47;;;22.87;;
52940;SDS011;62001;53.366;6.636;2022-12-24T04:00:30;74.93;;;24.50;;
52940;SDS011;62001;53.366;6.636;2022-12-24T04:02:56;64.77;;;22.70;;
52940;SDS011;62001;53.366;6.636;2022-12-24T04:05:22;75.33;;;24.63;;
52940;SDS011;62001;53.366;6.636;2022-12-24T04:07:48;57.97;;;22.17;;
52940;SDS011;62001;53.366;6.636;2022-12-24T04:10:14;59.30;;;23.30;;
52940;SDS011;62001;53.366;6.636;2022-12-24T04:12:40;63.90;;;22.47;;
52940;SDS011;62001;53.366;6.636;2022-12-24T04:15:07;62.57;;;22.57;;
52940;SDS011;62001;53.366;6.636;2022-12-24T04:17:33;54.37;;;22.03;;
52940;SDS011;62001;53.366;6.636;2022-12-24T04:19:59;73.07;;;24.30;;
52940;SDS011;62001;53.366;6.636;2022-12-24T04:22:25;81.07;;;25.57;;
52940;SDS011;62001;53.366;6.636;2022-12-24T04:24:51;75.30;;;25.10;;
52940;SDS011;62001;53.366;6.636;2022-12-24T04:27:16;72.30;;;26.20;;
52940;SDS011;62001;53.366;6.636;2022-12-24T04:29:42;85.60;;;27.77;;
52940;SDS011;62001;53.366;6.636;2022-12-24T04:32:08;76.57;;;29.43;;
52940;SDS011;62001;53.366;6.636;2022-12-24T04:34:34;88.40;;;29.97;;
52940;SDS011;62001;53.366;6.636;2022-12-24T04:37:02;106.90;;;30.40;;
52940;SDS011;62001;53.366;6.636;2022-12-24T04:39:28;96.10;;;31.10;;
52940;SDS011;62001;53.366;6.636;2022-12-24T04:41:54;73.10;;;30.17;;
52940;SDS011;62001;53.366;6.636;2022-12-24T04:44:20;77.70;;;28.67;;
52940;SDS011;62001;53.366;6.636;2022-12-24T04:46:46;88.77;;;30.60;;
52940;SDS011;62001;53.366;6.636;2022-12-24T04:49:11;69.20;;;28.10;;
52940;SDS011;62001;53.366;6.636;2022-12-24T04:51:37;95.87;;;30.63;;
52940;SDS011;62001;53.366;6.636;2022-12-24T04:54:03;73.50;;;28.63;;
52940;SDS011;62001;53.366;6.636;2022-12-24T04:56:29;68.40;;;26.87;;
52940;SDS011;62001;53.366;6.636;2022-12-24T04:58:57;79.37;;;26.77;;
52940;SDS011;62001;53.366;6.636;2022-12-24T05:01:26;76.63;;;26.53;;
52940;SDS011;62001;53.366;6.636;2022-12-24T05:03:53;65.93;;;24.73;;
52940;SDS011;62001;53.366;6.636;2022-12-24T05:06:24;65.87;;;23.97;;
52940;SDS011;62001;53.366;6.636;2022-12-24T05:08:53;59.67;;;22.30;;
52940;SDS011;62001;53.366;6.636;2022-12-24T05:11:19;77.90;;;24.77;;
52940;SDS011;62001;53.366;6.636;2022-12-24T05:13:45;57.80;;;21.50;;
52940;SDS011;62001;53.366;6.636;2022-12-24T05:16:11;57.60;;;22.13;;
52940;SDS011;62001;53.366;6.636;2022-12-24T05:18:38;59.57;;;22.37;;
52940;SDS011;62001;53.366;6.636;2022-12-24T05:21:08;61.75;;;21.80;;
52940;SDS011;62001;53.366;6.636;2022-12-24T05:23:35;53.08;;;19.63;;
52940;SDS011;62001;53.366;6.636;2022-12-24T05:29:16;50.47;;;17.97;;
52940;SDS011;62001;53.366;6.636;2022-12-24T05:31:42;52.15;;;17.73;;
52940;SDS011;62001;53.366;6.636;2022-12-24T05:34:09;55.20;;;17.40;;
52940;SDS011;62001;53.366;6.636;2022-12-24T05:36:36;47.30;;;12.20;;
52940;SDS011;62001;53.366;6.636;2022-12-24T05:39:02;48.37;;;12.03;;
52940;SDS011;62001;53.366;6.636;2022-12-24T05:41:29;49.37;;;9.77;;
52940;SDS011;62001;53.366;6.636;2022-12-24T05:43:55;51.07;;;9.07;;
52940;SDS011;62001;53.366;6.636;2022-12-24T05:46:21;50.50;;;8.60;;
52940;SDS011;62001;53.366;6.636;2022-12-24T05:48:49;44.22;;;7.95;;
52940;SDS011;62001;53.366;6.636;2022-12-24T05:51:16;44.20;;;8.80;;
52940;SDS011;62001;53.366;6.636;2022-12-24T05:53:44;42.77;;;8.37;;
52940;SDS011;62001;53.366;6.636;2022-12-24T05:56:12;48.97;;;8.67;;
52940;SDS011;62001;53.366;6.636;2022-12-24T05:58:41;45.77;;;7.23;;
52940;SDS011;62001;53.366;6.636;2022-12-24T06:01:08;43.70;;;7.43;;
52940;SDS011;62001;53.366;6.636;2022-12-24T06:03:35;50.28;;;7.60;;
52940;SDS011;62001;53.366;6.636;2022-12-24T06:06:02;53.97;;;7.37;;
52940;SDS011;62001;53.366;6.636;2022-12-24T06:08:36;48.23;;;7.53;;
52940;SDS011;62001;53.366;6.636;2022-12-24T06:11:04;46.07;;;7.87;;
52940;SDS011;62001;53.366;6.636;2022-12-24T06:13:32;59.67;;;8.55;;
52940;SDS011;62001;53.366;6.636;2022-12-24T06:16:00;56.53;;;8.20;;
52940;SDS011;62001;53.366;6.636;2022-12-24T06:18:30;58.23;;;8.00;;
52940;SDS011;62001;53.366;6.636;2022-12-24T06:20:57;61.53;;;8.60;;
52940;SDS011;62001;53.366;6.636;2022-12-24T06:23:23;59.83;;;8.50;;
52940;SDS011;62001;53.366;6.636;2022-12-24T06:25:50;55.03;;;8.07;;
52940;SDS011;62001;53.366;6.636;2022-12-24T06:28:16;63.37;;;9.13;;
52940;SDS011;62001;53.366;6.636;2022-12-24T06:30:49;54.45;;;7.90;;
52940;SDS011;62001;53.366;6.636;2022-12-24T06:33:17;59.40;;;8.30;;
52940;SDS011;62001;53.366;6.636;2022-12-24T06:35:43;70.30;;;8.63;;
52940;SDS011;62001;53.366;6.636;2022-12-24T06:38:10;71.13;;;9.68;;
52940;SDS011;62001;53.366;6.636;2022-12-24T06:40:37;67.18;;;9.85;;
52940;SDS011;62001;53.366;6.636;2022-12-24T06:43:03;70.85;;;9.18;;
52940;SDS011;62001;53.366;6.636;2022-12-24T06:45:29;66.60;;;8.95;;
52940;SDS011;62001;53.366;6.636;2022-12-24T06:47:56;64.40;;;8.63;;
52940;SDS011;62001;53.366;6.636;2022-12-24T06:50:22;61.53;;;9.13;;
52940;SDS011;62001;53.366;6.636;2022-12-24T06:52:48;70.63;;;9.05;;
52940;SDS011;62001;53.366;6.636;2022-12-24T06:55:14;64.57;;;8.82;;
52940;SDS011;62001;53.366;6.636;2022-12-24T06:57:40;77.15;;;9.25;;
52940;SDS011;62001;53.366;6.636;2022-12-24T07:00:06;72.10;;;8.85;;
52940;SDS011;62001;53.366;6.636;2022-12-24T07:02:33;54.08;;;7.93;;
52940;SDS011;62001;53.366;6.636;2022-12-24T07:04:59;66.47;;;9.05;;
52940;SDS011;62001;53.366;6.636;2022-12-24T07:07:25;71.78;;;8.85;;
52940;SDS011;62001;53.366;6.636;2022-12-24T07:09:51;64.28;;;8.25;;
52940;SDS011;62001;53.366;6.636;2022-12-24T07:12:16;61.80;;;8.98;;
52940;SDS011;62001;53.366;6.636;2022-12-24T07:14:42;62.90;;;8.05;;
52940;SDS011;62001;53.366;6.636;2022-12-24T07:17:08;65.05;;;8.50;;
52940;SDS011;62001;53.366;6.636;2022-12-24T07:19:34;64.88;;;8.85;;
52940;SDS011;62001;53.366;6.636;2022-12-24T07:22:00;57.25;;;9.75;;
52940;SDS011;62001;53.366;6.636;2022-12-24T07:24:26;59.28;;;10.10;;
52940;SDS011;62001;53.366;6.636;2022-12-24T07:26:51;62.60;;;8.60;;
52940;SDS011;62001;53.366;6.636;2022-12-24T07:29:17;57.75;;;8.02;;
52940;SDS011;62001;53.366;6.636;2022-12-24T07:31:43;62.92;;;8.05;;
52940;SDS011;62001;53.366;6.636;2022-12-24T07:34:09;58.38;;;8.57;;
52940;SDS011;62001;53.366;6.636;2022-12-24T07:36:35;62.92;;;8.52;;
52940;SDS011;62001;53.366;6.636;2022-12-24T07:39:01;53.25;;;7.82;;
52940;SDS011;62001;53.366;6.636;2022-12-24T07:41:27;69.28;;;8.90;;
52940;SDS011;62001;53.366;6.636;2022-12-24T07:43:53;63.13;;;8.95;;
52940;SDS011;62001;53.366;6.636;2022-12-24T07:46:18;60.75;;;8.70;;
52940;SDS011;62001;53.366;6.636;2022-12-24T07:48:44;52.72;;;8.70;;
52940;SDS011;62001;53.366;6.636;2022-12-24T07:51:10;53.33;;;8.38;;
52940;SDS011;62001;53.366;6.636;2022-12-24T07:53:36;52.20;;;8.55;;
52940;SDS011;62001;53.366;6.636;2022-12-24T07:56:02;71.60;;;11.55;;
52940;SDS011;62001;53.366;6.636;2022-12-24T07:58:28;66.53;;;13.07;;
52940;SDS011;62001;53.366;6.636;2022-12-24T08:00:58;53.85;;;8.13;;
52940;SDS011;62001;53.366;6.636;2022-12-24T08:03:24;62.28;;;8.98;;
52940;SDS011;62001;53.366;6.636;2022-12-24T08:05:50;53.97;;;7.70;;
52940;SDS011;62001;53.366;6.636;2022-12-24T08:08:19;62.85;;;8.00;;
52940;SDS011;62001;53.366;6.636;2022-12-24T08:10:45;66.03;;;8.47;;
52940;SDS011;62001;53.366;6.636;2022-12-24T08:13:12;56.93;;;8.27;;
52940;SDS011;62001;53.366;6.636;2022-12-24T08:15:41;55.65;;;9.57;;
52940;SDS011;62001;53.366;6.636;2022-12-24T08:18:07;54.83;;;7.30;;
52940;SDS011;62001;53.366;6.636;2022-12-24T08:20:33;52.10;;;8.15;;
52940;SDS011;62001;53.366;6.636;2022-12-24T08:22:59;60.67;;;8.82;;
52940;SDS011;62001;53.366;6.636;2022-12-24T08:25:25;58.03;;;9.50;;
52940;SDS011;62001;53.366;6.636;2022-12-24T08:27:51;56.63;;;8.77;;
52940;SDS011;62001;53.366;6.636;2022-12-24T08:30:16;62.45;;;8.48;;
52940;SDS011;62001;53.366;6.636;2022-12-24T08:32:42;58.30;;;8.47;;
52940;SDS011;62001;53.366;6.636;2022-12-24T08:35:08;57.10;;;7.93;;
52940;SDS011;62001;53.366;6.636;2022-12-24T08:37:34;56.93;;;7.77;;
52940;SDS011;62001;53.366;6.636;2022-12-24T08:40:00;55.88;;;7.60;;
52940;SDS011;62001;53.366;6.636;2022-12-24T08:42:26;60.00;;;8.93;;
52940;SDS011;62001;53.366;6.636;2022-12-24T08:44:52;49.25;;;7.15;;
52940;SDS011;62001;53.366;6.636;2022-12-24T08:47:18;48.33;;;8.65;;
52940;SDS011;62001;53.366;6.636;2022-12-24T08:49:44;65.73;;;8.13;;
52940;SDS011;62001;53.366;6.636;2022-12-24T08:52:09;48.33;;;7.87;;
52940;SDS011;62001;53.366;6.636;2022-12-24T08:54:35;50.23;;;7.47;;
52940;SDS011;62001;53.366;6.636;2022-12-24T08:57:01;50.55;;;8.27;;
52940;SDS011;62001;53.366;6.636;2022-12-24T08:59:27;47.83;;;7.38;;
52940;SDS011;62001;53.366;6.636;2022-12-24T09:01:53;58.15;;;7.63;;
52940;SDS011;62001;53.366;6.636;2022-12-24T09:04:18;53.85;;;8.15;;
52940;SDS011;62001;53.366;6.636;2022-12-24T09:06:44;47.92;;;7.28;;
52940;SDS011;62001;53.366;6.636;2022-12-24T09:09:10;57.95;;;8.00;;
52940;SDS011;62001;53.366;6.636;2022-12-24T09:11:36;63.10;;;9.45;;
52940;SDS011;62001;53.366;6.636;2022-12-24T09:14:02;59.00;;;7.70;;
52940;SDS011;62001;53.366;6.636;2022-12-24T09:16:28;47.60;;;8.40;;
52940;SDS011;62001;53.366;6.636;2022-12-24T09:18:55;45.85;;;8.10;;
52940;SDS011;62001;53.366;6.636;2022-12-24T09:21:21;53.05;;;7.85;;
52940;SDS011;62001;53.366;6.636;2022-12-24T09:23:47;48.97;;;7.82;;
52940;SDS011;62001;53.366;6.636;2022-12-24T09:26:14;59.47;;;8.23;;
52940;SDS011;62001;53.366;6.636;2022-12-24T09:28:46;61.58;;;8.90;;
52940;SDS011;62001;53.366;6.636;2022-12-24T09:31:13;54.90;;;7.80;;
52940;SDS011;62001;53.366;6.636;2022-12-24T09:33:40;63.50;;;8.82;;
52940;SDS011;62001;53.366;6.636;2022-12-24T09:36:06;50.75;;;8.55;;
52940;SDS011;62001;53.366;6.636;2022-12-24T09:38:33;47.88;;;8.43;;
52940;SDS011;62001;53.366;6.636;2022-12-24T09:40:59;58.47;;;8.80;;
52940;SDS011;62001;53.366;6.636;2022-12-24T09:43:28;55.03;;;8.10;;
52940;SDS011;62001;53.366;6.636;2022-12-24T09:48:41;56.60;;;8.15;;
52940;SDS011;62001;53.366;6.636;2022-12-24T09:51:14;46.25;;;8.23;;
52940;SDS011;62001;53.366;6.636;2022-12-24T09:56:29;46.72;;;7.78;;
52940;SDS011;62001;53.366;6.636;2022-12-24T09:58:59;45.40;;;8.45;;
52940;SDS011;62001;53.366;6.636;2022-12-24T10:01:31;35.97;;;7.28;;
52940;SDS011;62001;53.366;6.636;2022-12-24T10:04:03;43.15;;;6.95;;
52940;SDS011;62001;53.366;6.636;2022-12-24T10:06:37;46.42;;;7.55;;
52940;SDS011;62001;53.366;6.636;2022-12-24T10:11:48;43.55;;;7.60;;
52940;SDS011;62001;53.366;6.636;2022-12-24T10:25:50;43.85;;;7.32;;
52940;SDS011;62001;53.366;6.636;2022-12-24T10:28:37;40.30;;;7.30;;
52940;SDS011;62001;53.366;6.636;2022-12-24T10:31:11;56.38;;;8.65;;
52940;SDS011;62001;53.366;6.636;2022-12-24T10:33:42;41.75;;;7.15;;
52940;SDS011;62001;53.366;6.636;2022-12-24T10:36:10;40.92;;;7.72;;
52940;SDS011;62001;53.366;6.636;2022-12-24T10:38:41;46.40;;;7.22;;
52940;SDS011;62001;53.366;6.636;2022-12-24T10:41:08;49.15;;;8.32;;
52940;SDS011;62001;53.366;6.636;2022-12-24T10:43:34;47.17;;;8.07;;
52940;SDS011;62001;53.366;6.636;2022-12-24T10:46:03;55.92;;;8.63;;
52940;SDS011;62001;53.366;6.636;2022-12-24T10:48:35;47.50;;;7.65;;
52940;SDS011;62001;53.366;6.636;2022-12-24T10:51:08;41.03;;;8.43;;
52940;SDS011;62001;53.366;6.636;2022-12-24T10:53:43;53.90;;;14.32;;
52940;SDS011;62001;53.366;6.636;2022-12-24T10:56:14;44.20;;;8.93;;
52940;SDS011;62001;53.366;6.636;2022-12-24T10:58:45;44.17;;;8.20;;
52940;SDS011;62001;53.366;6.636;2022-12-24T11:01:16;47.00;;;8.07;;
52940;SDS011;62001;53.366;6.636;2022-12-24T11:03:42;44.30;;;8.50;;
52940;SDS011;62001;53.366;6.636;2022-12-24T11:06:15;50.30;;;8.23;;
52940;SDS011;62001;53.366;6.636;2022-12-24T11:08:46;46.65;;;8.48;;
52940;SDS011;62001;53.366;6.636;2022-12-24T11:11:13;42.33;;;7.90;;
52940;SDS011;62001;53.366;6.636;2022-12-24T11:18:48;40.15;;;7.47;;
52940;SDS011;62001;53.366;6.636;2022-12-24T11:21:25;53.83;;;9.25;;
52940;SDS011;62001;53.366;6.636;2022-12-24T11:23:54;48.78;;;8.13;;
52940;SDS011;62001;53.366;6.636;2022-12-24T11:26:24;52.25;;;10.68;;
52940;SDS011;62001;53.366;6.636;2022-12-24T11:31:50;54.97;;;10.40;;
52940;SDS011;62001;53.366;6.636;2022-12-24T11:34:23;52.93;;;10.77;;
52940;SDS011;62001;53.366;6.636;2022-12-24T11:44:49;52.80;;;7.85;;
52940;SDS011;62001;53.366;6.636;2022-12-24T11:47:16;45.75;;;7.65;;
52940;SDS011;62001;53.366;6.636;2022-12-24T11:49:42;55.28;;;15.90;;
52940;SDS011;62001;53.366;6.636;2022-12-24T11:54:42;45.47;;;9.07;;
52940;SDS011;62001;53.366;6.636;2022-12-24T11:57:15;61.42;;;18.08;;
52940;SDS011;62001;53.366;6.636;2022-12-24T11:59:46;49.90;;;9.25;;
52940;SDS011;62001;53.366;6.636;2022-12-24T12:04:55;37.38;;;7.40;;
52940;SDS011;62001;53.366;6.636;2022-12-24T12:07:25;35.15;;;6.30;;
52940;SDS011;62001;53.366;6.636;2022-12-24T12:12:27;39.33;;;6.45;;
52940;SDS011;62001;53.366;6.636;2022-12-24T12:15:21;41.25;;;6.05;;
52940;SDS011;62001;53.366;6.636;2022-12-24T12:17:53;32.95;;;5.90;;
52940;SDS011;62001;53.366;6.636;2022-12-24T12:20:42;29.27;;;6.18;;
52940;SDS011;62001;53.366;6.636;2022-12-24T12:31:39;33.15;;;6.40;;
52940;SDS011;62001;53.366;6.636;2022-12-24T12:36:45;34.20;;;6.70;;
52940;SDS011;62001;53.366;6.636;2022-12-24T12:39:11;39.03;;;6.70;;
52940;SDS011;62001;53.366;6.636;2022-12-24T12:41:44;32.78;;;6.63;;
52940;SDS011;62001;53.366;6.636;2022-12-24T12:57:59;32.05;;;6.63;;
52940;SDS011;62001;53.366;6.636;2022-12-24T13:03:11;31.85;;;5.07;;
52940;SDS011;62001;53.366;6.636;2022-12-24T13:11:38;22.13;;;4.10;;
52940;SDS011;62001;53.366;6.636;2022-12-24T13:14:14;27.77;;;4.82;;
52940;SDS011;62001;53.366;6.636;2022-12-24T13:22:37;28.35;;;5.53;;
52940;SDS011;62001;53.366;6.636;2022-12-24T13:25:02;21.27;;;4.82;;
52940;SDS011;62001;53.366;6.636;2022-12-24T13:27:29;24.50;;;5.00;;
52940;SDS011;62001;53.366;6.636;2022-12-24T13:30:02;21.20;;;3.78;;
52940;SDS011;62001;53.366;6.636;2022-12-24T13:32:51;31.52;;;4.53;;
52940;SDS011;62001;53.366;6.636;2022-12-24T13:37:45;30.90;;;4.32;;
52940;SDS011;62001;53.366;6.636;2022-12-24T13:40:13;19.92;;;4.38;;
52940;SDS011;62001;53.366;6.636;2022-12-24T13:58:31;22.45;;;4.93;;
52940;SDS011;62001;53.366;6.636;2022-12-24T14:01:01;27.85;;;4.82;;
52940;SDS011;62001;53.366;6.636;2022-12-24T14:05:59;27.55;;;4.30;;
52940;SDS011;62001;53.366;6.636;2022-12-24T14:08:36;20.15;;;4.32;;
52940;SDS011;62001;53.366;6.636;2022-12-24T14:11:16;21.58;;;3.90;;
52940;SDS011;62001;53.366;6.636;2022-12-24T14:18:43;21.40;;;4.45;;
52940;SDS011;62001;53.366;6.636;2022-12-24T14:21:15;30.65;;;5.20;;
52940;SDS011;62001;53.366;6.636;2022-12-24T14:23:52;25.02;;;5.13;;
52940;SDS011;62001;53.366;6.636;2022-12-24T14:26:22;24.52;;;4.55;;
52940;SDS011;62001;53.366;6.636;2022-12-24T14:28:56;24.00;;;4.28;;
52940;SDS011;62001;53.366;6.636;2022-12-24T14:31:48;21.80;;;4.28;;
52940;SDS011;62001;53.366;6.636;2022-12-24T14:34:18;22.60;;;4.35;;
52940;SDS011;62001;53.366;6.636;2022-12-24T14:36:44;26.73;;;4.85;;
52940;SDS011;62001;53.366;6.636;2022-12-24T14:39:31;22.13;;;4.90;;
52940;SDS011;62001;53.366;6.636;2022-12-24T14:42:08;25.05;;;4.75;;
52940;SDS011;62001;53.366;6.636;2022-12-24T14:55:58;23.77;;;5.32;;
52940;SDS011;62001;53.366;6.636;2022-12-24T14:58:37;24.95;;;5.00;;
52940;SDS011;62001;53.366;6.636;2022-12-24T15:01:20;21.38;;;5.25;;
52940;SDS011;62001;53.366;6.636;2022-12-24T15:06:36;24.00;;;5.45;;
52940;SDS011;62001;53.366;6.636;2022-12-24T15:09:42;32.30;;;5.78;;
52940;SDS011;62001;53.366;6.636;2022-12-24T15:12:04;32.22;;;5.55;;
52940;SDS011;62001;53.366;6.636;2022-12-24T15:14:33;23.42;;;5.50;;
52940;SDS011;62001;53.366;6.636;2022-12-24T15:17:07;20.40;;;4.15;;
52940;SDS011;62001;53.366;6.636;2022-12-24T15:19:37;27.20;;;5.18;;
52940;SDS011;62001;53.366;6.636;2022-12-24T15:24:36;30.27;;;5.05;;
52940;SDS011;62001;53.366;6.636;2022-12-24T15:27:18;29.85;;;5.25;;
52940;SDS011;62001;53.366;6.636;2022-12-24T15:29:49;27.42;;;5.13;;
52940;SDS011;62001;53.366;6.636;2022-12-24T15:32:18;31.55;;;5.93;;
52940;SDS011;62001;53.366;6.636;2022-12-24T15:34:51;25.17;;;5.63;;
52940;SDS011;62001;53.366;6.636;2022-12-24T15:40:03;35.58;;;9.30;;
52940;SDS011;62001;53.366;6.636;2022-12-24T15:42:33;32.67;;;8.38;;
52940;SDS011;62001;53.366;6.636;2022-12-24T15:45:01;40.45;;;11.65;;
52940;SDS011;62001;53.366;6.636;2022-12-24T15:47:32;40.03;;;9.00;;
52940;SDS011;62001;53.366;6.636;2022-12-24T15:50:15;29.40;;;6.93;;
52940;SDS011;62001;53.366;6.636;2022-12-24T15:52:42;25.27;;;6.53;;
52940;SDS011;62001;53.366;6.636;2022-12-24T16:01:05;27.83;;;5.47;;
52940;SDS011;62001;53.366;6.636;2022-12-24T16:06:23;25.50;;;5.75;;
52940;SDS011;62001;53.366;6.636;2022-12-24T16:08:49;24.05;;;4.45;;
52940;SDS011;62001;53.366;6.636;2022-12-24T16:11:19;27.48;;;5.38;;
52940;SDS011;62001;53.366;6.636;2022-12-24T16:17:23;32.92;;;5.78;;
52940;SDS011;62001;53.366;6.636;2022-12-24T16:19:52;31.35;;;7.70;;
52940;SDS011;62001;53.366;6.636;2022-12-24T16:22:21;28.70;;;8.85;;
52940;SDS011;62001;53.366;6.636;2022-12-24T16:24:57;36.97;;;8.73;;
52940;SDS011;62001;53.366;6.636;2022-12-24T16:27:24;32.47;;;5.93;;
52940;SDS011;62001;53.366;6.636;2022-12-24T16:29:50;33.70;;;5.90;;
52940;SDS011;62001;53.366;6.636;2022-12-24T16:32:26;33.93;;;5.37;;
52940;SDS011;62001;53.366;6.636;2022-12-24T16:35:00;27.63;;;5.90;;
52940;SDS011;62001;53.366;6.636;2022-12-24T16:37:27;34.23;;;5.90;;
52940;SDS011;62001;53.366;6.636;2022-12-24T16:39:53;30.53;;;5.57;;
52940;SDS011;62001;53.366;6.636;2022-12-24T16:42:19;38.40;;;6.27;;
52940;SDS011;62001;53.366;6.636;2022-12-24T16:45:03;30.17;;;5.87;;
52940;SDS011;62001;53.366;6.636;2022-12-24T16:47:30;33.10;;;5.67;;
52940;SDS011;62001;53.366;6.636;2022-12-24T16:49:58;31.07;;;7.10;;
52940;SDS011;62001;53.366;6.636;2022-12-24T16:52:25;37.60;;;10.57;;
52940;SDS011;62001;53.366;6.636;2022-12-24T16:54:55;43.03;;;9.90;;
52940;SDS011;62001;53.366;6.636;2022-12-24T16:57:22;41.13;;;9.07;;
52940;SDS011;62001;53.366;6.636;2022-12-24T16:59:49;33.87;;;9.17;;
52940;SDS011;62001;53.366;6.636;2022-12-24T17:02:16;43.03;;;11.47;;
52940;SDS011;62001;53.366;6.636;2022-12-24T17:04:44;41.17;;;10.33;;
52940;SDS011;62001;53.366;6.636;2022-12-24T17:07:11;49.33;;;12.10;;
52940;SDS011;62001;53.366;6.636;2022-12-24T17:09:38;42.33;;;12.03;;
52940;SDS011;62001;53.366;6.636;2022-12-24T17:12:03;45.07;;;13.77;;
52940;SDS011;62001;53.366;6.636;2022-12-24T17:14:29;42.33;;;12.23;;
52940;SDS011;62001;53.366;6.636;2022-12-24T17:16:55;36.03;;;10.00;;
52940;SDS011;62001;53.366;6.636;2022-12-24T17:19:21;35.83;;;10.50;;
52940;SDS011;62001;53.366;6.636;2022-12-24T17:21:47;34.37;;;9.07;;
52940;SDS011;62001;53.366;6.636;2022-12-24T17:24:13;30.33;;;6.93;;
52940;SDS011;62001;53.366;6.636;2022-12-24T17:26:39;30.23;;;6.43;;
52940;SDS011;62001;53.366;6.636;2022-12-24T17:29:07;31.93;;;7.10;;
52940;SDS011;62001;53.366;6.636;2022-12-24T17:31:34;23.90;;;6.70;;
52940;SDS011;62001;53.366;6.636;2022-12-24T17:34:02;39.13;;;8.27;;
52940;SDS011;62001;53.366;6.636;2022-12-24T17:36:27;35.23;;;7.80;;
52940;SDS011;62001;53.366;6.636;2022-12-24T17:38:53;34.03;;;6.53;;